createdAt,value
2022-09-19T00:00:35.330Z,89.44
2022-09-19T00:03:05.339Z,89.42
2022-09-19T00:05:34.816Z,89.07
2022-09-19T00:08:04.675Z,89.60
2022-09-19T00:10:38.568Z,88.68
2022-09-19T00:13:08.481Z,89.02
2022-09-19T00:15:47.895Z,89.27
2022-09-19T00:18:17.592Z,88.99
2022-09-19T00:20:49.231Z,89.29
2022-09-19T00:23:36.606Z,89.60
2022-09-19T00:26:11.925Z,89.37
2022-09-19T00:28:41.577Z,89.70
2022-09-19T00:31:19.105Z,89.23
2022-09-19T00:33:50.326Z,89.00
2022-09-19T00:36:21.431Z,88.65
2022-09-19T00:38:51.336Z,88.14
2022-09-19T00:41:23.469Z,88.20
2022-09-19T00:43:55.238Z,88.53
2022-09-19T00:46:29.192Z,89.06
2022-09-19T00:52:05.535Z,88.77
2022-09-19T00:54:41.952Z,88.79
2022-09-19T00:57:15.156Z,88.79
2022-09-19T00:59:49.968Z,88.66
2022-09-19T01:02:23.887Z,88.54
2022-09-19T01:04:53.215Z,88.32
2022-09-19T01:07:36.946Z,88.78
2022-09-19T01:10:15.888Z,88.80
2022-09-19T01:12:57.094Z,88.60
2022-09-19T01:15:41.144Z,88.50
2022-09-19T01:18:12.048Z,88.30
2022-09-19T01:21:33.486Z,88.50
2022-09-19T01:24:43.619Z,88.79
2022-09-19T01:27:56.164Z,89.12
2022-09-19T01:30:26.983Z,88.43
2022-09-19T01:33:02.455Z,88.56
2022-09-19T01:35:34.783Z,88.85
2022-09-19T01:38:08.468Z,88.93
2022-09-19T01:40:40.311Z,88.58
2022-09-19T01:43:16.351Z,88.78
2022-09-19T01:45:46.984Z,89.03
2022-09-19T01:48:22.781Z,88.53
2022-09-19T01:51:23.055Z,88.43
2022-09-19T01:54:18.288Z,88.30
2022-09-19T01:56:59.534Z,87.79
2022-09-19T01:59:48.765Z,87.94
2022-09-19T02:02:30.417Z,88.16
2022-09-19T02:05:07.262Z,87.64
2022-09-19T02:07:46.307Z,88.00
2022-09-19T02:10:24.570Z,87.26
2022-09-19T02:12:59.924Z,88.27
2022-09-19T02:15:34.079Z,87.36
2022-09-19T02:18:10.241Z,88.23
2022-09-19T02:20:46.438Z,87.63
2022-09-19T02:23:23.985Z,87.54
2022-09-19T02:25:57.007Z,87.59
2022-09-19T02:28:32.370Z,88.21
2022-09-19T02:31:04.266Z,88.33
2022-09-19T02:33:37.303Z,88.09
2022-09-19T02:36:16.831Z,88.33
2022-09-19T02:38:54.790Z,88.62
2022-09-19T02:41:32.256Z,88.76
2022-09-19T02:44:14.624Z,89.07
2022-09-19T02:46:56.167Z,90.37
2022-09-19T02:49:40.268Z,90.89
2022-09-19T02:52:16.891Z,91.00
2022-09-19T02:54:51.415Z,90.59
2022-09-19T02:57:24.167Z,90.91
2022-09-19T02:59:56.689Z,90.36
2022-09-19T03:02:31.444Z,90.51
2022-09-19T03:05:07.284Z,90.14
2022-09-19T03:07:41.667Z,89.42
2022-09-19T03:10:14.886Z,88.99
2022-09-19T03:12:51.745Z,89.01
2022-09-19T03:15:24.888Z,89.55
2022-09-19T03:17:57.299Z,88.97
2022-09-19T03:20:26.747Z,89.65
2022-09-19T03:22:56.577Z,88.96
2022-09-19T03:25:27.017Z,89.19
2022-09-19T03:27:57.288Z,89.22
2022-09-19T03:30:27.046Z,89.08
2022-09-19T03:32:58.295Z,89.77
2022-09-19T03:35:27.691Z,90.63
2022-09-19T03:37:57.067Z,90.18
2022-09-19T03:40:26.665Z,89.97
2022-09-19T03:42:56.800Z,89.21
2022-09-19T03:45:26.222Z,89.17
2022-09-19T03:47:57.672Z,89.41
2022-09-19T03:53:13.473Z,89.91
2022-09-19T03:55:42.975Z,89.49
2022-09-19T03:58:12.825Z,89.38
2022-09-19T04:00:42.469Z,88.99
2022-09-19T04:03:12.112Z,88.88
2022-09-19T04:05:41.493Z,88.79
2022-09-19T04:08:12.268Z,88.61
2022-09-19T04:10:43.664Z,88.32
2022-09-19T04:13:13.110Z,88.72
2022-09-19T04:15:43.425Z,89.20
2022-09-19T04:18:12.856Z,88.75
2022-09-19T04:20:42.220Z,88.42
2022-09-19T04:23:17.904Z,88.60
2022-09-19T04:25:47.986Z,88.90
2022-09-19T04:28:19.762Z,88.89
2022-09-19T04:30:49.368Z,88.75
2022-09-19T04:33:19.607Z,88.87
2022-09-19T04:35:49.087Z,88.98
2022-09-19T04:38:21.924Z,88.76
2022-09-19T04:40:58.325Z,89.35
2022-09-19T04:43:29.350Z,88.80
2022-09-19T04:45:59.803Z,88.68
2022-09-19T04:48:29.224Z,88.62
2022-09-19T04:50:59.165Z,89.10
2022-09-19T04:53:33.875Z,89.32
2022-09-19T04:56:03.655Z,88.84
2022-09-19T04:58:33.267Z,89.11
2022-09-19T05:01:02.594Z,89.09
2022-09-19T05:03:32.006Z,89.13
2022-09-19T05:06:01.378Z,89.38
2022-09-19T05:08:35.081Z,88.59
2022-09-19T05:11:07.762Z,89.48
2022-09-19T05:13:40.476Z,89.63
2022-09-19T05:16:11.424Z,88.73
2022-09-19T05:18:40.888Z,89.00
2022-09-19T05:21:14.572Z,88.96
2022-09-19T05:23:45.698Z,88.85
2022-09-19T05:26:17.708Z,88.22
2022-09-19T05:28:47.790Z,88.73
2022-09-19T05:31:19.656Z,88.61
2022-09-19T05:33:49.223Z,88.77
2022-09-19T05:36:19.714Z,88.20
2022-09-19T05:38:50.813Z,88.20
2022-09-19T05:41:20.182Z,87.77
2022-09-19T05:43:49.599Z,87.29
2022-09-19T05:46:19.211Z,87.10
2022-09-19T05:48:50.659Z,86.49
2022-09-19T05:51:20.155Z,86.44
2022-09-19T05:53:56.482Z,86.02
2022-09-19T05:56:26.205Z,85.93
2022-09-19T05:58:56.327Z,85.70
2022-09-19T06:01:25.807Z,84.98
2022-09-19T06:03:55.421Z,85.05
2022-09-19T06:06:25.206Z,84.88
2022-09-19T06:09:00.567Z,84.62
2022-09-19T06:11:30.394Z,85.04
2022-09-19T06:14:23.678Z,85.21
2022-09-19T06:16:53.447Z,85.07
2022-09-19T06:19:22.948Z,84.86
2022-09-19T06:21:52.632Z,83.96
2022-09-19T06:24:23.446Z,82.27
2022-09-19T06:26:56.903Z,81.28
2022-09-19T06:29:26.436Z,78.84
2022-09-19T06:31:55.954Z,76.16
2022-09-19T06:34:37.930Z,73.83
2022-09-19T06:37:15.200Z,67.84
2022-09-19T06:39:46.050Z,65.55
2022-09-19T06:42:15.475Z,59.65
2022-09-19T06:44:44.735Z,60.88
2022-09-19T06:47:14.742Z,61.43
2022-09-19T06:53:02.087Z,54.75
2022-09-19T06:55:31.867Z,55.23
2022-09-19T06:58:03.870Z,54.94
2022-09-19T07:00:37.754Z,53.67
2022-09-19T07:03:09.865Z,55.59
2022-09-19T07:05:43.669Z,55.00
2022-09-19T07:08:15.134Z,54.44
2022-09-19T07:10:45.057Z,54.69
2022-09-19T07:13:17.924Z,54.70
2022-09-19T07:15:48.036Z,52.62
2022-09-19T07:18:17.323Z,53.25
2022-09-19T07:20:46.531Z,53.21
2022-09-19T07:23:20.168Z,52.10
2022-09-19T07:25:50.411Z,51.59
2022-09-19T07:28:21.910Z,50.79
2022-09-19T07:30:54.774Z,51.82
2022-09-19T07:33:25.091Z,51.83
2022-09-19T07:35:57.200Z,52.01
2022-09-19T07:38:29.546Z,52.47
2022-09-19T07:41:01.319Z,50.10
2022-09-19T07:43:31.127Z,50.88
2022-09-19T07:46:00.462Z,49.90
2022-09-19T07:48:29.944Z,50.89
2022-09-19T07:51:03.345Z,49.85
2022-09-19T07:53:34.147Z,48.35
2022-09-19T07:56:05.735Z,48.08
2022-09-19T07:58:35.543Z,47.79
2022-09-19T08:01:05.909Z,44.84
2022-09-19T08:03:35.408Z,45.46
2022-09-19T08:06:04.783Z,46.06
2022-09-19T08:08:38.506Z,44.58
2022-09-19T08:11:08.028Z,42.40
2022-09-19T08:13:37.344Z,41.54
2022-09-19T08:16:07.550Z,42.43
2022-09-19T08:18:37.809Z,42.91
2022-09-19T08:21:07.643Z,42.36
2022-09-19T08:23:42.298Z,43.35
2022-09-19T08:26:12.036Z,42.90
2022-09-19T08:28:41.598Z,42.84
2022-09-19T08:31:11.113Z,42.71
2022-09-19T08:33:40.512Z,40.82
2022-09-19T08:36:11.237Z,44.30
2022-09-19T08:38:42.209Z,41.79
2022-09-19T08:41:41.084Z,44.97
2022-09-19T08:44:17.702Z,42.90
2022-09-19T08:46:57.449Z,43.99
2022-09-19T08:49:32.973Z,44.33
2022-09-19T08:52:07.609Z,40.54
2022-09-19T08:54:42.836Z,43.22
2022-09-19T08:57:21.002Z,42.28
2022-09-19T08:59:53.672Z,41.73
2022-09-19T09:03:03.127Z,40.83
2022-09-19T09:05:47.888Z,42.17
2022-09-19T09:08:35.114Z,37.46
2022-09-19T09:11:23.609Z,38.55
2022-09-19T09:14:02.737Z,39.02
2022-09-19T09:16:46.256Z,40.87
2022-09-19T09:19:48.923Z,40.54
2022-09-19T09:22:27.370Z,38.45
2022-09-19T09:25:03.501Z,40.07
2022-09-19T09:27:44.232Z,40.51
2022-09-19T09:30:19.071Z,40.75
2022-09-19T09:32:57.848Z,39.31
2022-09-19T09:35:36.328Z,39.59
2022-09-19T09:38:14.587Z,38.47
2022-09-19T09:41:09.306Z,41.34
2022-09-19T09:43:51.887Z,39.93
2022-09-19T09:46:34.655Z,39.83
2022-09-19T09:49:03.929Z,40.54
2022-09-19T09:53:12.174Z,39.54
2022-09-19T09:56:10.189Z,37.71
2022-09-19T09:58:59.956Z,39.07
2022-09-19T10:01:55.674Z,40.35
2022-09-19T10:04:35.267Z,41.06
2022-09-19T10:07:17.367Z,39.28
2022-09-19T10:09:54.687Z,39.15
2022-09-19T10:15:22.925Z,38.20
2022-09-19T10:17:58.748Z,40.86
2022-09-19T10:20:40.922Z,36.48
2022-09-19T10:23:17.370Z,40.30
2022-09-19T10:25:52.832Z,39.11
2022-09-19T10:28:29.669Z,40.79
2022-09-19T10:31:02.306Z,36.21
2022-09-19T10:33:43.605Z,36.36
2022-09-19T10:36:23.124Z,39.63
2022-09-19T10:39:00.209Z,39.03
2022-09-19T10:41:34.229Z,37.75
2022-09-19T10:44:08.132Z,38.14
2022-09-19T10:46:45.892Z,37.92
2022-09-19T10:49:23.034Z,38.66
2022-09-19T10:51:54.756Z,35.05
2022-09-19T10:54:34.057Z,37.55
2022-09-19T10:57:06.464Z,38.29
2022-09-19T10:59:39.695Z,34.99
2022-09-19T11:02:24.241Z,34.79
2022-09-19T11:05:04.294Z,34.91
2022-09-19T11:07:35.931Z,35.60
2022-09-19T11:10:11.382Z,36.18
2022-09-19T11:12:42.994Z,35.13
2022-09-19T11:15:18.281Z,35.22
2022-09-19T11:18:03.830Z,37.01
2022-09-19T11:20:47.830Z,35.59
2022-09-19T11:23:53.679Z,35.07
2022-09-19T11:26:36.749Z,37.26
2022-09-19T11:29:39.974Z,36.08
2022-09-19T11:35:29.545Z,32.38
2022-09-19T11:41:28.882Z,33.48
2022-09-19T11:44:44.407Z,34.80
2022-09-19T11:47:52.380Z,33.73
2022-09-19T11:50:51.669Z,36.48
2022-09-19T11:53:52.930Z,34.72
2022-09-19T11:56:59.822Z,34.71
2022-09-19T11:59:57.096Z,35.33
2022-09-19T12:02:57.641Z,35.64
2022-09-19T12:05:42.198Z,35.46
2022-09-19T12:08:40.186Z,33.74
2022-09-19T12:11:16.537Z,34.22
2022-09-19T12:13:57.436Z,34.27
2022-09-19T12:16:38.068Z,35.54
2022-09-19T12:19:14.864Z,35.90
2022-09-19T12:21:52.101Z,34.79
2022-09-19T12:24:47.492Z,33.54
2022-09-19T12:27:23.047Z,33.46
2022-09-19T12:30:00.572Z,34.20
2022-09-19T12:32:42.600Z,34.05
2022-09-19T12:35:24.044Z,34.56
2022-09-19T12:38:09.748Z,35.80
2022-09-19T12:40:50.016Z,33.09
2022-09-19T12:43:35.173Z,31.96
2022-09-19T12:46:17.181Z,33.39
2022-09-19T12:49:02.794Z,36.54
2022-09-19T12:53:15.037Z,35.52
2022-09-19T12:55:59.697Z,35.81
2022-09-19T12:58:35.359Z,37.56
2022-09-19T13:01:18.216Z,38.34
2022-09-19T13:03:54.995Z,37.60
2022-09-19T13:06:28.060Z,39.50
2022-09-19T13:09:06.239Z,37.06
2022-09-19T13:11:42.661Z,38.26
2022-09-19T13:14:19.912Z,38.47
2022-09-19T13:17:06.924Z,39.07
2022-09-19T13:19:58.869Z,40.17
2022-09-19T13:22:46.320Z,40.95
2022-09-19T13:25:21.736Z,41.06
2022-09-19T13:28:35.684Z,37.63
2022-09-19T13:31:17.118Z,39.27
2022-09-19T13:33:54.954Z,40.02
2022-09-19T13:36:45.344Z,40.55
2022-09-19T13:39:48.535Z,39.02
2022-09-19T13:42:27.968Z,39.86
2022-09-19T13:45:27.289Z,40.44
2022-09-19T13:48:05.968Z,40.31
2022-09-19T13:50:45.912Z,40.56
2022-09-19T13:53:34.828Z,41.72
2022-09-19T13:56:07.061Z,41.21
2022-09-19T13:58:40.794Z,45.35
2022-09-19T14:01:23.260Z,45.53
2022-09-19T14:03:57.659Z,44.21
2022-09-19T14:06:33.073Z,47.69
2022-09-19T14:13:01.084Z,45.88
2022-09-19T14:16:34.541Z,43.38
2022-09-19T14:19:04.189Z,44.36
2022-09-19T14:21:58.578Z,44.00
2022-09-19T14:24:52.045Z,42.61
2022-09-19T14:28:01.606Z,42.01
2022-09-19T14:31:07.981Z,43.08
2022-09-19T14:34:36.513Z,45.47
2022-09-19T14:37:47.390Z,44.58
2022-09-19T14:40:38.925Z,45.83
2022-09-19T14:43:50.777Z,45.76
2022-09-19T14:46:40.853Z,46.69
2022-09-19T14:49:21.210Z,48.07
2022-09-19T14:51:59.767Z,48.92
2022-09-19T14:54:36.869Z,50.02
2022-09-19T14:57:14.778Z,50.51
2022-09-19T14:59:44.269Z,50.50
2022-09-19T15:02:24.748Z,50.45
2022-09-19T15:05:02.195Z,51.14
2022-09-19T15:07:33.767Z,52.45
2022-09-19T15:10:03.312Z,50.52
2022-09-19T15:12:36.875Z,51.90
2022-09-19T15:15:08.010Z,53.34
2022-09-19T15:17:39.523Z,51.62
2022-09-19T15:20:17.346Z,52.43
2022-09-19T15:22:53.735Z,52.81
2022-09-19T15:25:27.028Z,52.04
2022-09-19T15:28:00.360Z,52.63
2022-09-19T15:30:32.390Z,52.64
2022-09-19T15:33:05.561Z,53.01
2022-09-19T15:35:42.170Z,54.06
2022-09-19T15:38:19.645Z,53.82
2022-09-19T15:40:49.505Z,55.31
2022-09-19T15:43:20.016Z,56.82
2022-09-19T15:45:50.957Z,57.29
2022-09-19T15:48:26.097Z,57.48
2022-09-19T15:53:02.209Z,57.87
2022-09-19T15:55:32.597Z,57.84
2022-09-19T15:58:04.611Z,57.94
2022-09-19T16:00:45.429Z,58.53
2022-09-19T16:03:24.264Z,60.19
2022-09-19T16:06:30.757Z,64.70
2022-09-19T16:09:08.826Z,67.12
2022-09-19T16:11:44.647Z,67.34
2022-09-19T16:14:27.326Z,66.54
2022-09-19T16:16:57.310Z,66.20
2022-09-19T16:19:46.566Z,67.16
2022-09-19T16:22:21.579Z,68.18
2022-09-19T16:24:55.410Z,68.13
2022-09-19T16:27:32.523Z,68.84
2022-09-19T16:30:05.466Z,70.68
2022-09-19T16:32:35.522Z,71.56
2022-09-19T16:35:06.580Z,72.41
2022-09-19T16:37:40.153Z,72.16
2022-09-19T16:40:25.922Z,73.18
2022-09-19T16:42:55.462Z,74.36
2022-09-19T16:45:25.843Z,75.96
2022-09-19T16:47:55.367Z,76.14
2022-09-19T16:50:28.279Z,75.37
2022-09-19T16:52:58.145Z,75.74
2022-09-19T16:55:42.586Z,76.92
2022-09-19T16:58:15.504Z,78.16
2022-09-19T17:00:46.767Z,78.54
2022-09-19T17:03:17.614Z,78.67
2022-09-19T17:05:47.093Z,79.09
2022-09-19T17:08:16.585Z,78.91
2022-09-19T17:10:48.534Z,80.10
2022-09-19T17:13:17.915Z,80.42
2022-09-19T17:15:53.605Z,81.23
2022-09-19T17:18:25.517Z,81.68
2022-09-19T17:20:57.364Z,82.74
2022-09-19T17:23:29.625Z,83.57
2022-09-19T17:26:01.445Z,81.94
2022-09-19T17:28:32.008Z,81.42
2022-09-19T17:31:02.518Z,81.04
2022-09-19T17:33:32.928Z,80.77
2022-09-19T17:36:02.704Z,80.25
2022-09-19T17:38:34.969Z,79.81
2022-09-19T17:41:06.115Z,79.92
2022-09-19T17:43:35.502Z,79.78
2022-09-19T17:46:07.743Z,79.88
2022-09-19T17:48:40.812Z,80.65
2022-09-19T17:51:11.835Z,80.92
2022-09-19T17:53:43.208Z,80.48
2022-09-19T17:56:20.782Z,81.17
2022-09-19T17:58:51.228Z,80.44
2022-09-19T18:01:38.844Z,80.41
2022-09-19T18:04:09.231Z,80.36
2022-09-19T18:06:38.894Z,80.81
2022-09-19T18:09:11.671Z,79.87
2022-09-19T18:11:43.326Z,80.50
2022-09-19T18:14:17.725Z,82.53
2022-09-19T18:16:48.459Z,81.45
2022-09-19T18:19:17.976Z,81.54
2022-09-19T18:21:49.133Z,81.65
2022-09-19T18:24:18.875Z,81.81
2022-09-19T18:26:49.961Z,81.87
2022-09-19T18:29:19.833Z,81.49
2022-09-19T18:31:49.314Z,80.95
2022-09-19T18:34:18.678Z,80.84
2022-09-19T18:36:48.366Z,80.58
2022-09-19T18:39:17.720Z,81.41
2022-09-19T18:41:48.536Z,81.01
2022-09-19T18:44:17.860Z,80.82
2022-09-19T18:46:48.592Z,80.40
2022-09-19T18:49:18.492Z,80.62
2022-09-19T18:53:01.149Z,81.02
2022-09-19T18:55:30.399Z,80.32
2022-09-19T18:57:59.820Z,80.90
2022-09-19T19:00:29.230Z,80.84
2022-09-19T19:02:59.719Z,80.72
2022-09-19T19:05:29.086Z,81.43
2022-09-19T19:07:59.811Z,81.12
2022-09-19T19:10:29.150Z,81.41
2022-09-19T19:12:58.533Z,81.33
2022-09-19T19:15:27.922Z,80.69
2022-09-19T19:17:57.213Z,80.92
2022-09-19T19:20:26.491Z,81.23
2022-09-19T19:23:05.989Z,81.08
2022-09-19T19:25:36.757Z,80.88
2022-09-19T19:28:06.179Z,81.03
2022-09-19T19:30:35.673Z,81.43
2022-09-19T19:33:05.098Z,80.91
2022-09-19T19:35:34.538Z,81.03
2022-09-19T19:38:05.031Z,81.08
2022-09-19T19:40:35.925Z,81.10
2022-09-19T19:43:05.375Z,81.95
2022-09-19T19:45:36.630Z,82.41
2022-09-19T19:48:05.909Z,82.39
2022-09-19T19:50:35.147Z,84.66
2022-09-19T19:53:04.531Z,84.64
2022-09-19T19:55:36.451Z,84.37
2022-09-19T19:58:05.996Z,84.14
2022-09-19T20:00:37.862Z,84.23
2022-09-19T20:03:07.379Z,84.75
2022-09-19T20:05:36.824Z,83.58
2022-09-19T20:08:06.248Z,83.87
2022-09-19T20:10:37.102Z,84.14
2022-09-19T20:13:06.394Z,84.58
2022-09-19T20:15:35.714Z,85.64
2022-09-19T20:18:06.159Z,85.08
2022-09-19T20:20:40.259Z,85.39
2022-09-19T20:23:09.621Z,86.64
2022-09-19T20:25:46.890Z,85.33
2022-09-19T20:28:16.451Z,85.43
2022-09-19T20:30:46.856Z,85.39
2022-09-19T20:33:18.566Z,85.89
2022-09-19T20:35:48.130Z,85.30
2022-09-19T20:38:18.278Z,85.20
2022-09-19T20:40:49.100Z,86.11
2022-09-19T20:43:19.869Z,85.22
2022-09-19T20:45:57.016Z,85.81
2022-09-19T20:48:27.465Z,84.95
2022-09-19T20:50:58.908Z,84.92
2022-09-19T20:53:33.229Z,84.70
2022-09-19T20:56:07.711Z,83.88
2022-09-19T20:58:37.555Z,83.48
2022-09-19T21:01:10.751Z,84.31
2022-09-19T21:03:41.270Z,83.39
2022-09-19T21:06:13.089Z,81.77
2022-09-19T21:08:42.907Z,81.65
2022-09-19T21:11:16.452Z,81.33
2022-09-19T21:13:48.780Z,82.05
2022-09-19T21:16:20.416Z,81.95
2022-09-19T21:18:52.502Z,80.89
2022-09-19T21:21:24.998Z,81.23
2022-09-19T21:23:55.907Z,80.70
2022-09-19T21:26:30.133Z,79.05
2022-09-19T21:29:01.956Z,77.64
2022-09-19T21:31:34.150Z,78.29
2022-09-19T21:34:06.736Z,79.02
2022-09-19T21:36:37.796Z,78.25
2022-09-19T21:39:09.588Z,78.42
2022-09-19T21:41:42.166Z,78.81
2022-09-19T21:44:11.836Z,79.29
2022-09-19T21:46:41.319Z,79.51
2022-09-19T21:49:11.353Z,81.04
2022-09-19T21:53:00.910Z,80.59
2022-09-19T21:55:30.204Z,82.43
2022-09-19T21:57:59.527Z,81.24
2022-09-19T22:00:29.055Z,81.29
2022-09-19T22:02:58.490Z,82.08
2022-09-19T22:05:27.866Z,82.37
2022-09-19T22:07:57.384Z,81.71
2022-09-19T22:10:28.133Z,81.61
2022-09-19T22:12:57.771Z,81.54
2022-09-19T22:15:27.191Z,82.18
2022-09-19T22:17:56.643Z,82.29
2022-09-19T22:20:26.412Z,82.29
2022-09-19T22:22:55.860Z,81.75
2022-09-19T22:25:26.726Z,82.50
2022-09-19T22:27:55.944Z,82.48
2022-09-19T22:30:25.442Z,82.52
2022-09-19T22:32:54.818Z,82.22
2022-09-19T22:35:24.566Z,82.48
2022-09-19T22:37:53.878Z,82.30
2022-09-19T22:40:24.414Z,82.55
2022-09-19T22:42:55.687Z,82.69
2022-09-19T22:45:25.096Z,82.60
2022-09-19T22:47:55.519Z,83.62
2022-09-19T22:50:24.888Z,83.17
2022-09-19T22:52:54.371Z,82.37
2022-09-19T22:55:23.741Z,81.83
2022-09-19T22:57:55.667Z,82.23
2022-09-19T23:00:24.911Z,82.30
2022-09-19T23:02:54.550Z,82.05
2022-09-19T23:05:23.933Z,81.92
2022-09-19T23:07:53.557Z,82.16
2022-09-19T23:10:24.815Z,82.55
2022-09-19T23:13:15.732Z,82.79
2022-09-19T23:15:45.219Z,82.70
2022-09-19T23:18:14.741Z,83.00
2022-09-19T23:20:44.061Z,82.80
2022-09-19T23:23:13.411Z,82.67
2022-09-19T23:25:42.905Z,82.68
2022-09-19T23:28:13.798Z,82.72
2022-09-19T23:30:43.220Z,82.40
2022-09-19T23:33:12.587Z,82.54
2022-09-19T23:35:41.986Z,82.57
2022-09-19T23:38:11.456Z,82.18
2022-09-19T23:40:41.446Z,82.18
2022-09-19T23:43:10.855Z,81.09
2022-09-19T23:45:41.845Z,80.43
2022-09-19T23:48:11.163Z,80.69
2022-09-19T23:50:40.532Z,80.15
2022-09-19T23:53:09.877Z,80.40
2022-09-19T23:55:39.632Z,79.92
2022-09-19T23:58:09.029Z,79.12
